Time;durP1;ratioP1;P1;durP2;ratioP2;P2;SDS_P1;SDS_P2;PMS_P1;PMS_P2;Temp;Humidity;BMP_temperature;BMP_pressure;BME280_temperature;BME280_humidity;BME280_pressure;Samples;Min_cycle;Max_cycle;Signal;HPM_P1;HPM_P2
2021/07/01 00:01:11;;;;;;;18.03;17.20;;;15.20;90.40;;;;;;5064280;28;20464;-74
2021/07/01 00:03:38;;;;;;;17.57;16.73;;;15.30;90.40;;;;;;5066308;28;20476;-74
2021/07/01 00:06:06;;;;;;;17.73;16.90;;;15.30;90.00;;;;;;5060050;28;20460;-74
2021/07/01 00:08:33;;;;;;;17.60;16.80;;;15.30;90.20;;;;;;5056735;28;20463;-74
2021/07/01 00:10:59;;;;;;;17.20;16.50;;;15.30;90.10;;;;;;5067109;28;20457;-74
2021/07/01 00:13:28;;;;;;;17.70;16.70;;;15.30;90.20;;;;;;5058179;28;20463;-74
2021/07/01 00:15:55;;;;;;;17.97;17.17;;;15.30;90.00;;;;;;5053665;28;20469;-74
2021/07/01 00:18:21;;;;;;;17.20;16.50;;;15.30;90.10;;;;;;5062969;28;20468;-74
2021/07/01 00:20:49;;;;;;;18.10;17.20;;;15.30;89.90;;;;;;5062987;28;20453;-74
2021/07/01 00:23:15;;;;;;;17.30;16.60;;;15.30;89.60;;;;;;5061548;28;20478;-74
2021/07/01 00:25:43;;;;;;;17.37;16.37;;;15.30;89.80;;;;;;5061797;28;20614;-74
2021/07/01 00:28:10;;;;;;;17.00;16.20;;;15.30;89.80;;;;;;5060159;28;20516;-74
2021/07/01 00:30:38;;;;;;;17.17;16.37;;;15.40;89.60;;;;;;5066550;28;20549;-74
2021/07/01 00:33:05;;;;;;;17.30;16.50;;;15.40;89.40;;;;;;5065844;28;21003;-74
2021/07/01 00:35:32;;;;;;;17.30;16.60;;;15.40;89.20;;;;;;5048115;28;20496;-74
2021/07/01 00:37:59;;;;;;;17.80;16.90;;;15.40;89.60;;;;;;5062538;28;20468;-74
2021/07/01 00:40:26;;;;;;;17.53;16.83;;;15.40;89.50;;;;;;5062695;28;20550;-75
2021/07/01 00:42:53;;;;;;;16.73;16.03;;;15.40;89.50;;;;;;5055836;28;20460;-75
2021/07/01 00:45:20;;;;;;;17.50;16.50;;;15.40;89.90;;;;;;5062429;28;20476;-75
2021/07/01 00:47:48;;;;;;;17.93;16.90;;;15.40;90.00;;;;;;5062821;28;20470;-75
2021/07/01 00:50:16;;;;;;;17.70;16.90;;;15.30;89.80;;;;;;5064476;28;20553;-75
2021/07/01 00:52:43;;;;;;;18.10;17.30;;;15.40;89.50;;;;;;5064317;28;20948;-74
2021/07/01 00:55:12;;;;;;;17.60;16.80;;;15.40;89.30;;;;;;5055601;28;20550;-74
2021/07/01 00:57:40;;;;;;;17.40;16.60;;;15.40;89.50;;;;;;5060564;28;20460;-75
2021/07/01 01:00:19;;;;;;;17.20;16.30;;;15.30;90.30;;;;;;5061987;28;20485;-75
2021/07/01 01:02:47;;;;;;;17.37;16.67;;;15.40;89.70;;;;;;5058273;28;20452;-75
2021/07/01 01:05:14;;;;;;;17.90;17.10;;;15.40;89.60;;;;;;5060688;28;20482;-75
2021/07/01 01:07:41;;;;;;;17.60;16.80;;;15.40;89.30;;;;;;5057467;28;20454;-74
2021/07/01 01:10:09;;;;;;;17.40;16.60;;;15.30;89.20;;;;;;5061583;28;20467;-75
2021/07/01 01:12:36;;;;;;;17.50;16.70;;;15.30;89.30;;;;;;5063299;28;20458;-75
2021/07/01 01:15:03;;;;;;;17.73;16.93;;;15.40;89.00;;;;;;5063705;28;20478;-74
2021/07/01 01:17:30;;;;;;;17.77;16.93;;;15.30;89.40;;;;;;5054070;28;20481;-75
2021/07/01 01:19:58;;;;;;;17.80;17.00;;;15.40;89.40;;;;;;5063187;28;20465;-75
2021/07/01 01:22:26;;;;;;;17.90;17.10;;;15.40;89.00;;;;;;5060366;28;20552;-75
2021/07/01 01:24:53;;;;;;;18.10;17.30;;;15.40;88.90;;;;;;5064614;28;20481;-75
2021/07/01 01:27:22;;;;;;;18.20;17.20;;;15.40;89.10;;;;;;5061520;28;20462;-75
2021/07/01 01:29:48;;;;;;;17.90;17.10;;;15.30;89.30;;;;;;5063189;28;20463;-75
2021/07/01 01:32:15;;;;;;;18.73;17.57;;;15.40;89.00;;;;;;5062547;28;20466;-75
2021/07/01 01:34:42;;;;;;;18.40;17.60;;;15.30;89.40;;;;;;5058374;28;20556;-75
2021/07/01 01:37:09;;;;;;;17.90;17.10;;;15.40;89.30;;;;;;5057526;28;20476;-74
2021/07/01 01:39:38;;;;;;;17.60;16.80;;;15.40;88.70;;;;;;5062154;28;20485;-74
2021/07/01 01:42:05;;;;;;;18.30;17.50;;;15.40;88.70;;;;;;5058664;28;21188;-74
2021/07/01 01:44:32;;;;;;;18.70;17.53;;;15.40;88.70;;;;;;5060112;28;20488;-75
2021/07/01 01:46:59;;;;;;;17.33;16.53;;;15.40;88.10;;;;;;5060271;28;21084;-74
2021/07/01 01:49:26;;;;;;;17.83;17.03;;;15.50;87.80;;;;;;5059886;28;20470;-75
2021/07/01 01:51:53;;;;;;;17.97;17.17;;;15.40;88.50;;;;;;5053580;28;20466;-75
2021/07/01 01:54:20;;;;;;;18.13;17.30;;;15.30;88.90;;;;;;5059409;28;20561;-75
2021/07/01 01:56:48;;;;;;;18.47;17.27;;;15.30;88.90;;;;;;5060201;28;20458;-75
2021/07/01 01:59:15;;;;;;;17.93;17.03;;;15.30;89.10;;;;;;5062606;28;20458;-75
2021/07/01 02:01:42;;;;;;;18.10;17.30;;;15.30;89.10;;;;;;5058912;28;20608;-75
2021/07/01 02:04:09;;;;;;;18.37;17.57;;;15.30;89.30;;;;;;5062689;28;20496;-75
2021/07/01 02:06:37;;;;;;;17.90;17.10;;;15.30;89.70;;;;;;5058638;28;20468;-74
2021/07/01 02:09:06;;;;;;;17.77;16.97;;;15.30;88.90;;;;;;5061843;28;20462;-75
2021/07/01 02:11:33;;;;;;;17.80;17.00;;;15.30;89.30;;;;;;5059058;28;20465;-75
2021/07/01 02:14:01;;;;;;;17.70;16.90;;;15.30;89.00;;;;;;5050014;28;20978;-75
2021/07/01 02:16:28;;;;;;;18.70;17.80;;;15.30;89.00;;;;;;5057031;28;20821;-75
2021/07/01 02:18:55;;;;;;;17.70;16.90;;;15.30;89.40;;;;;;5058886;28;20983;-75
2021/07/01 02:21:22;;;;;;;17.80;17.00;;;15.40;89.30;;;;;;5054801;28;20465;-74
2021/07/01 02:23:49;;;;;;;18.50;17.70;;;15.50;88.60;;;;;;5061507;28;20477;-75
2021/07/01 02:26:17;;;;;;;18.60;17.70;;;15.40;88.60;;;;;;5056952;28;20613;-75
2021/07/01 02:28:44;;;;;;;18.53;17.60;;;15.30;88.80;;;;;;5061089;28;20454;-74
2021/07/01 02:31:12;;;;;;;18.30;17.37;;;15.30;89.00;;;;;;5056859;28;20988;-75
2021/07/01 02:33:39;;;;;;;18.10;17.30;;;15.40;89.00;;;;;;5053777;28;20493;-75
2021/07/01 02:36:07;;;;;;;17.90;17.10;;;15.40;88.60;;;;;;5053120;28;20462;-74
2021/07/01 02:38:34;;;;;;;18.20;17.40;;;15.30;88.80;;;;;;5060336;28;20837;-74
2021/07/01 02:41:01;;;;;;;19.10;18.30;;;15.30;88.90;;;;;;5057141;28;20466;-74
2021/07/01 02:43:28;;;;;;;18.30;17.40;;;15.30;89.10;;;;;;5061937;28;20468;-74
2021/07/01 02:45:56;;;;;;;18.10;17.20;;;15.30;89.40;;;;;;5054114;28;20490;-74
2021/07/01 02:48:25;;;;;;;17.93;17.13;;;15.30;88.80;;;;;;5060600;28;20465;-74
2021/07/01 02:50:52;;;;;;;18.60;17.60;;;15.40;88.70;;;;;;5053504;28;20569;-74
2021/07/01 02:53:19;;;;;;;20.20;19.20;;;15.50;88.10;;;;;;5062859;28;20492;-74
2021/07/01 02:55:46;;;;;;;20.90;19.83;;;15.50;88.50;;;;;;5055594;28;20485;-74
2021/07/01 02:58:13;;;;;;;18.37;17.57;;;15.50;88.60;;;;;;5058468;28;20446;-74
2021/07/01 03:00:40;;;;;;;17.27;16.33;;;15.40;88.80;;;;;;5058057;28;20824;-74
2021/07/01 03:03:07;;;;;;;17.80;17.00;;;15.50;88.70;;;;;;5061462;28;20484;-74
2021/07/01 03:05:35;;;;;;;20.20;19.20;;;15.40;89.00;;;;;;5047370;28;20586;-74
2021/07/01 03:08:02;;;;;;;18.03;17.23;;;15.40;88.50;;;;;;5056562;28;20581;-74
2021/07/01 03:10:29;;;;;;;19.50;18.60;;;15.50;88.40;;;;;;5060762;28;20458;-74
2021/07/01 03:12:56;;;;;;;18.00;17.20;;;15.50;88.10;;;;;;5060195;28;20974;-74
2021/07/01 03:15:23;;;;;;;19.00;18.10;;;15.50;88.30;;;;;;5051094;28;20541;-73
2021/07/01 03:17:50;;;;;;;19.30;18.40;;;15.50;88.40;;;;;;5059608;28;20862;-74
2021/07/01 03:20:17;;;;;;;19.43;18.17;;;15.40;88.60;;;;;;5058792;28;20777;-73
2021/07/01 03:22:46;;;;;;;20.73;19.80;;;15.40;88.50;;;;;;5057761;28;20462;-74
2021/07/01 03:25:13;;;;;;;18.67;17.77;;;15.30;89.00;;;;;;5059405;28;20477;-74
2021/07/01 03:27:40;;;;;;;18.60;17.80;;;15.30;89.00;;;;;;5059548;28;20470;-74
2021/07/01 03:30:09;;;;;;;20.03;18.93;;;15.30;88.90;;;;;;5065713;28;20458;-74
2021/07/01 03:32:36;;;;;;;21.40;20.30;;;15.30;88.90;;;;;;5058041;28;20458;-74
2021/07/01 03:35:03;;;;;;;18.57;17.77;;;15.40;88.80;;;;;;5058512;28;20501;-74
2021/07/01 03:37:30;;;;;;;18.27;17.47;;;15.30;89.00;;;;;;5062450;28;20956;-74
2021/07/01 03:39:58;;;;;;;20.97;20.00;;;15.30;89.50;;;;;;5065145;28;20453;-74
2021/07/01 03:42:26;;;;;;;18.00;17.20;;;15.40;89.20;;;;;;5059701;28;20808;-74
2021/07/01 03:44:53;;;;;;;18.90;18.00;;;15.40;89.50;;;;;;5061722;28;20489;-74
2021/07/01 03:47:19;;;;;;;19.93;19.03;;;15.40;89.40;;;;;;5061759;28;20572;-74
2021/07/01 03:49:46;;;;;;;22.43;21.27;;;15.40;89.60;;;;;;5064837;28;20468;-74
2021/07/01 03:52:13;;;;;;;17.87;16.97;;;15.30;89.40;;;;;;5063408;28;20461;-74
2021/07/01 03:54:40;;;;;;;18.80;17.80;;;15.40;89.30;;;;;;5063115;28;20565;-74
2021/07/01 03:57:08;;;;;;;21.00;20.10;;;15.40;89.50;;;;;;5050478;28;20467;-74
2021/07/01 03:59:35;;;;;;;18.67;17.87;;;15.40;89.30;;;;;;5064186;28;20584;-74
2021/07/01 04:02:02;;;;;;;19.37;18.47;;;15.40;89.40;;;;;;5061814;28;20526;-74
2021/07/01 04:04:29;;;;;;;18.33;17.53;;;15.40;89.30;;;;;;5064066;28;20478;-74
2021/07/01 04:06:56;;;;;;;18.00;17.20;;;15.30;89.50;;;;;;5059160;28;20464;-74
2021/07/01 04:09:23;;;;;;;18.20;17.30;;;15.30;90.10;;;;;;5063355;28;20908;-74
2021/07/01 04:11:50;;;;;;;18.47;17.67;;;15.30;90.30;;;;;;5063106;28;20462;-74
2021/07/01 04:14:19;;;;;;;19.63;18.63;;;15.40;89.70;;;;;;5067199;28;20477;-74
2021/07/01 04:16:46;;;;;;;21.33;19.90;;;15.40;89.30;;;;;;5051970;28;20463;-74
2021/07/01 04:19:13;;;;;;;18.20;17.20;;;15.40;89.00;;;;;;5063015;28;20494;-74
2021/07/01 04:21:41;;;;;;;20.30;19.20;;;15.40;89.20;;;;;;5053821;28;20471;-74
2021/07/01 04:24:08;;;;;;;18.80;17.90;;;15.40;88.90;;;;;;5066805;28;21037;-75
2021/07/01 04:26:36;;;;;;;19.40;18.40;;;15.40;88.80;;;;;;5052622;28;20562;-75
2021/07/01 04:29:04;;;;;;;19.60;18.70;;;15.50;88.70;;;;;;5059026;28;20478;-74
2021/07/01 04:31:33;;;;;;;18.93;18.03;;;15.50;88.90;;;;;;5056352;28;21295;-75
2021/07/01 04:33:59;;;;;;;18.00;17.10;;;15.50;89.00;;;;;;5062382;28;20509;-75
2021/07/01 04:36:26;;;;;;;18.63;17.83;;;15.50;88.50;;;;;;5057195;28;21219;-75
2021/07/01 04:38:53;;;;;;;17.80;17.00;;;15.60;88.60;;;;;;5056224;28;21001;-75
2021/07/01 04:41:20;;;;;;;18.40;17.57;;;15.60;88.80;;;;;;5059008;28;20488;-75
2021/07/01 04:43:48;;;;;;;18.60;17.70;;;15.70;88.60;;;;;;5064445;28;21015;-71
2021/07/01 04:46:15;;;;;;;18.33;17.53;;;15.70;88.20;;;;;;5059094;28;20470;-72
2021/07/01 04:48:44;;;;;;;18.50;17.70;;;15.70;87.80;;;;;;5064943;28;20453;-76
2021/07/01 04:51:11;;;;;;;18.60;17.80;;;15.70;87.80;;;;;;5058826;28;20459;-80
2021/07/01 04:53:40;;;;;;;19.90;19.00;;;15.70;88.10;;;;;;5062246;28;20543;-74
2021/07/01 04:56:08;;;;;;;17.90;17.10;;;15.70;87.90;;;;;;5058629;28;20454;-74
2021/07/01 04:58:35;;;;;;;19.53;18.63;;;15.80;87.70;;;;;;5061840;28;21023;-74
2021/07/01 05:01:02;;;;;;;19.50;18.60;;;15.70;87.80;;;;;;5049032;28;20458;-74
2021/07/01 05:03:29;;;;;;;20.47;19.17;;;15.80;88.00;;;;;;5050999;28;20462;-75
2021/07/01 05:05:57;;;;;;;19.20;18.30;;;15.80;88.10;;;;;;5062474;28;20477;-73
2021/07/01 05:08:24;;;;;;;19.10;18.20;;;15.90;88.00;;;;;;5060869;28;20573;-73
2021/07/01 05:10:51;;;;;;;18.40;17.50;;;15.90;88.60;;;;;;5058675;28;21357;-73
2021/07/01 05:13:18;;;;;;;19.70;18.80;;;15.80;87.80;;;;;;5054090;28;20651;-75
2021/07/01 05:15:45;;;;;;;19.43;18.53;;;16.00;87.80;;;;;;5053450;28;21263;-75
2021/07/01 05:18:12;;;;;;;20.07;19.07;;;16.00;87.70;;;;;;5059770;28;20940;-73
2021/07/01 05:20:39;;;;;;;20.70;19.70;;;16.00;87.40;;;;;;5047778;28;20468;-74
2021/07/01 05:23:07;;;;;;;20.50;19.50;;;16.10;87.60;;;;;;5053932;28;20502;-75
2021/07/01 05:25:34;;;;;;;20.57;19.57;;;16.20;87.10;;;;;;5059014;28;20479;-73
2021/07/01 05:28:09;;;;;;;19.70;18.60;;;16.30;86.90;;;;;;5047905;28;20458;-73
2021/07/01 05:30:36;;;;;;;20.63;19.43;;;16.50;86.40;;;;;;5058251;28;20449;-72
2021/07/01 05:33:03;;;;;;;20.63;19.63;;;16.40;87.00;;;;;;5052195;28;20791;-73
2021/07/01 05:35:30;;;;;;;22.20;21.00;;;16.40;86.60;;;;;;5053513;28;20478;-74
2021/07/01 05:37:57;;;;;;;20.00;19.00;;;16.50;86.30;;;;;;5060467;28;20462;-72
2021/07/01 05:40:25;;;;;;;20.30;19.33;;;16.60;85.90;;;;;;5061190;28;20457;-72
2021/07/01 05:42:52;;;;;;;20.07;19.07;;;16.70;85.20;;;;;;5055396;28;20486;-72
2021/07/01 05:45:19;;;;;;;22.57;21.30;;;16.70;85.20;;;;;;5063594;28;20507;-72
2021/07/01 05:47:46;;;;;;;20.77;19.67;;;16.70;84.80;;;;;;5053998;28;20803;-72
2021/07/01 05:50:14;;;;;;;21.60;20.50;;;16.80;84.50;;;;;;5057480;28;20549;-71
2021/07/01 05:52:43;;;;;;;20.97;19.87;;;16.80;84.60;;;;;;5061707;28;20667;-73
2021/07/01 05:55:11;;;;;;;21.60;20.23;;;16.80;84.40;;;;;;5067460;28;20515;-73
2021/07/01 05:57:39;;;;;;;22.90;21.60;;;16.90;84.20;;;;;;5061419;28;20565;-72
2021/07/01 06:00:09;;;;;;;22.40;21.00;;;16.90;84.10;;;;;;5047254;28;20810;-73
2021/07/01 06:02:36;;;;;;;23.80;22.60;;;17.00;83.70;;;;;;5044883;28;20471;-72
2021/07/01 06:05:03;;;;;;;21.87;20.77;;;17.00;83.50;;;;;;5063302;28;20473;-73
2021/07/01 06:07:30;;;;;;;21.83;20.73;;;17.00;83.60;;;;;;5058330;28;20462;-73
2021/07/01 06:10:01;;;;;;;20.63;19.63;;;17.00;83.30;;;;;;5050424;28;20461;-72
2021/07/01 06:12:31;;;;;;;21.70;20.37;;;17.00;83.30;;;;;;5053603;28;20462;-72
2021/07/01 06:15:00;;;;;;;21.43;20.33;;;17.00;83.40;;;;;;5055590;28;20513;-71
2021/07/01 06:17:30;;;;;;;23.77;22.47;;;16.90;84.20;;;;;;5043472;28;20572;-71
2021/07/01 06:19:57;;;;;;;22.10;21.00;;;17.00;83.90;;;;;;5049336;28;20458;-71
2021/07/01 06:22:24;;;;;;;21.70;20.60;;;17.00;83.50;;;;;;5057422;28;20476;-71
2021/07/01 06:24:55;;;;;;;20.93;19.93;;;17.00;83.70;;;;;;5055418;28;20469;-71
2021/07/01 06:27:27;;;;;;;22.77;21.67;;;17.10;83.40;;;;;;5045935;28;20554;-72
2021/07/01 06:29:55;;;;;;;21.77;20.67;;;17.10;83.20;;;;;;5053488;28;20780;-71
2021/07/01 06:32:23;;;;;;;22.27;21.00;;;17.10;82.70;;;;;;5045668;28;21014;-70
2021/07/01 06:34:51;;;;;;;22.00;20.90;;;17.10;82.20;;;;;;5060441;28;20488;-71
2021/07/01 06:37:18;;;;;;;22.47;21.27;;;17.10;81.90;;;;;;5057968;28;20465;-70
2021/07/01 06:39:50;;;;;;;22.13;21.03;;;17.10;82.40;;;;;;5062085;28;20448;-71
2021/07/01 06:42:20;;;;;;;25.07;23.40;;;17.00;82.00;;;;;;5056563;28;20604;-71
2021/07/01 06:44:48;;;;;;;22.03;20.90;;;17.00;82.60;;;;;;5055990;28;20472;-73
2021/07/01 06:47:17;;;;;;;22.03;20.93;;;17.00;82.30;;;;;;5058671;28;20484;-74
2021/07/01 06:49:48;;;;;;;23.70;22.40;;;17.00;82.60;;;;;;5063347;28;20474;-73
2021/07/01 06:52:16;;;;;;;21.57;20.47;;;16.90;82.90;;;;;;5050198;28;20888;-74
2021/07/01 06:54:43;;;;;;;22.37;21.07;;;17.00;82.90;;;;;;5052327;28;20482;-73
2021/07/01 06:57:10;;;;;;;23.90;22.50;;;16.90;82.40;;;;;;5056657;28;20472;-78
2021/07/01 06:59:37;;;;;;;22.53;21.37;;;16.90;82.40;;;;;;5060931;28;20490;-72
2021/07/01 07:02:04;;;;;;;26.33;24.90;;;17.00;82.30;;;;;;5052899;28;20560;-72
2021/07/01 07:04:33;;;;;;;22.17;20.90;;;16.90;82.30;;;;;;5058763;28;20871;-74
2021/07/01 07:07:05;;;;;;;24.80;23.40;;;17.00;82.50;;;;;;5052228;28;20947;-72
2021/07/01 07:09:32;;;;;;;24.37;22.77;;;17.00;82.50;;;;;;5053738;28;20458;-74
2021/07/01 07:11:59;;;;;;;22.10;20.90;;;16.90;82.70;;;;;;5065313;28;20462;-73
2021/07/01 07:14:26;;;;;;;23.17;21.53;;;17.00;83.10;;;;;;5046153;28;20486;-72
2021/07/01 07:16:57;;;;;;;24.57;23.23;;;17.10;83.10;;;;;;5046361;28;20811;-72
2021/07/01 07:19:24;;;;;;;23.10;21.47;;;17.30;82.00;;;;;;5050678;28;20470;-72
2021/07/01 07:21:52;;;;;;;24.80;23.07;;;17.30;82.10;;;;;;5058830;28;20753;-73
2021/07/01 07:24:21;;;;;;;22.40;21.20;;;17.40;81.50;;;;;;5044856;28;20492;-72
2021/07/01 07:26:52;;;;;;;24.77;23.47;;;17.60;81.40;;;;;;5056754;28;20597;-72
2021/07/01 07:29:23;;;;;;;25.37;24.07;;;17.70;80.90;;;;;;5048010;28;20464;-72
2021/07/01 07:31:52;;;;;;;23.47;22.17;;;17.70;80.30;;;;;;5041512;28;20841;-72
2021/07/01 07:34:19;;;;;;;26.07;24.77;;;17.90;79.70;;;;;;5050917;28;20477;-72
2021/07/01 07:36:46;;;;;;;24.00;22.67;;;17.90;81.20;;;;;;5061398;28;20546;-73
2021/07/01 07:39:13;;;;;;;27.43;25.93;;;18.00;79.30;;;;;;5074550;28;20462;-72
2021/07/01 07:41:42;;;;;;;26.40;24.90;;;18.10;79.50;;;;;;5052777;28;20466;-72
2021/07/01 07:44:09;;;;;;;26.80;25.43;;;18.30;79.40;;;;;;5053857;28;20660;-71
2021/07/01 07:46:36;;;;;;;28.40;26.60;;;18.50;78.50;;;;;;5055666;28;20477;-70
2021/07/01 07:49:03;;;;;;;25.47;24.17;;;18.80;77.50;;;;;;5051276;28;20489;-71
2021/07/01 07:51:33;;;;;;;24.70;23.50;;;18.90;76.00;;;;;;5050893;28;20582;-71
2021/07/01 07:54:03;;;;;;;24.80;23.50;;;18.90;76.40;;;;;;5049451;28;20482;-71
2021/07/01 07:56:37;;;;;;;26.90;25.60;;;19.00;75.90;;;;;;5044749;28;20576;-71
2021/07/01 07:59:06;;;;;;;25.17;23.90;;;19.20;75.80;;;;;;5041859;28;20803;-70
2021/07/01 08:01:34;;;;;;;25.97;24.67;;;19.30;75.30;;;;;;5052130;28;20465;-70
2021/07/01 08:04:05;;;;;;;26.43;25.03;;;19.50;74.70;;;;;;5056061;28;20488;-72
2021/07/01 08:06:33;;;;;;;27.50;26.00;;;19.50;74.40;;;;;;5043683;28;20831;-74
2021/07/01 08:09:02;;;;;;;26.43;24.93;;;19.20;74.10;;;;;;5059873;28;20474;-72
2021/07/01 08:11:34;;;;;;;27.90;26.33;;;19.00;74.70;;;;;;5059949;28;20984;-72
2021/07/01 08:14:02;;;;;;;27.30;25.83;;;18.80;74.80;;;;;;5063142;28;20991;-73
2021/07/01 08:16:30;;;;;;;26.93;25.53;;;18.50;75.90;;;;;;5069298;28;20469;-72
2021/07/01 08:19:00;;;;;;;26.13;24.70;;;18.50;76.00;;;;;;5069798;28;20450;-73
2021/07/01 08:21:28;;;;;;;27.70;26.20;;;18.30;75.90;;;;;;5060611;28;20467;-73
2021/07/01 08:23:58;;;;;;;26.10;24.80;;;18.20;76.20;;;;;;5059265;28;20879;-72
2021/07/01 08:26:25;;;;;;;25.87;24.47;;;18.50;76.50;;;;;;5060921;28;20488;-73
2021/07/01 08:28:54;;;;;;;28.83;27.13;;;18.70;75.50;;;;;;5055128;28;20461;-72
2021/07/01 08:31:21;;;;;;;26.67;25.27;;;18.90;74.80;;;;;;5053627;28;20470;-72
2021/07/01 08:33:50;;;;;;;30.13;28.43;;;19.10;74.40;;;;;;5055997;28;20537;-73
2021/07/01 08:36:20;;;;;;;25.37;24.03;;;19.40;73.50;;;;;;5057894;28;20505;-73
2021/07/01 08:38:49;;;;;;;27.40;25.93;;;19.70;72.60;;;;;;5063094;28;22072;-74
2021/07/01 08:41:19;;;;;;;27.60;26.17;;;19.80;71.20;;;;;;5058794;28;20602;-73
2021/07/01 08:43:57;;;;;;;28.97;27.10;;;19.60;72.00;;;;;;5061552;28;20457;-73
2021/07/01 08:46:26;;;;;;;28.07;26.57;;;19.90;71.30;;;;;;5068131;28;20479;-73
2021/07/01 08:49:04;;;;;;;28.57;26.87;;;20.00;70.70;;;;;;5055371;28;20446;-76
2021/07/01 08:51:33;;;;;;;26.23;24.73;;;20.20;70.00;;;;;;5054106;28;20463;-72
2021/07/01 08:54:32;;;;;;;26.40;25.00;;;20.20;70.50;;;;;;5052747;28;21260;-72
2021/07/01 08:56:59;;;;;;;30.50;28.70;;;20.30;70.00;;;;;;5066908;28;20442;-73
2021/07/01 08:59:27;;;;;;;28.93;27.33;;;20.40;69.60;;;;;;5062743;28;20507;-72
2021/07/01 09:01:57;;;;;;;28.20;26.70;;;20.50;69.30;;;;;;5059915;28;20465;-72
2021/07/01 09:04:31;;;;;;;26.97;25.53;;;20.60;67.90;;;;;;5064393;28;20473;-72
2021/07/01 09:07:02;;;;;;;27.90;26.07;;;20.70;68.70;;;;;;5055465;28;20535;-72
2021/07/01 09:09:32;;;;;;;27.73;25.83;;;20.60;68.90;;;;;;5056793;28;20453;-72
2021/07/01 09:12:02;;;;;;;26.93;25.53;;;20.80;68.40;;;;;;5060758;28;20458;-73
2021/07/01 09:14:31;;;;;;;27.73;25.80;;;21.00;67.80;;;;;;5063088;28;20474;-72
2021/07/01 09:17:02;;;;;;;27.70;26.20;;;21.30;67.20;;;;;;5058161;28;20458;-72
2021/07/01 09:19:31;;;;;;;28.70;26.80;;;21.30;66.30;;;;;;5062951;28;20529;-72
2021/07/01 09:22:01;;;;;;;29.53;27.60;;;21.40;66.70;;;;;;5057017;28;20945;-72
2021/07/01 09:24:37;;;;;;;28.10;26.20;;;21.30;66.60;;;;;;5044993;28;20478;-72
2021/07/01 09:27:10;;;;;;;29.73;27.93;;;21.10;67.20;;;;;;5049305;28;20475;-72
2021/07/01 09:29:40;;;;;;;30.57;28.63;;;21.10;67.60;;;;;;5064730;28;21095;-72
2021/07/01 09:32:09;;;;;;;28.83;27.20;;;21.10;67.10;;;;;;5058365;28;20964;-73
2021/07/01 09:34:38;;;;;;;27.43;25.90;;;20.90;67.80;;;;;;5059391;28;20520;-73
2021/07/01 09:37:06;;;;;;;27.40;25.80;;;20.70;67.90;;;;;;5051216;28;20455;-71
2021/07/01 09:39:33;;;;;;;28.80;27.07;;;20.80;67.60;;;;;;5045224;28;20971;-73
2021/07/01 09:42:02;;;;;;;28.80;27.13;;;20.90;68.40;;;;;;5045578;28;20561;-74
2021/07/01 09:44:31;;;;;;;30.63;28.90;;;21.10;67.50;;;;;;5052208;28;20603;-73
2021/07/01 09:46:59;;;;;;;29.77;27.23;;;21.50;66.40;;;;;;5058655;28;20486;-73
2021/07/01 09:49:32;;;;;;;27.43;26.00;;;21.80;65.80;;;;;;5065067;28;20461;-73
2021/07/01 09:52:03;;;;;;;28.40;26.60;;;22.00;64.50;;;;;;5057175;28;20473;-74
2021/07/01 09:54:33;;;;;;;27.60;25.97;;;22.10;65.20;;;;;;5059160;28;20483;-73
2021/07/01 09:57:06;;;;;;;28.60;27.10;;;22.10;63.80;;;;;;5048195;28;20462;-74
2021/07/01 09:59:42;;;;;;;29.33;27.60;;;22.00;63.80;;;;;;5044746;28;20542;-73
2021/07/01 10:02:17;;;;;;;28.30;26.70;;;21.90;64.30;;;;;;5059241;28;20456;-73
2021/07/01 10:04:47;;;;;;;32.23;30.43;;;21.90;63.00;;;;;;5056889;28;20476;-74
2021/07/01 10:07:17;;;;;;;28.17;26.63;;;21.40;64.20;;;;;;5051709;28;20615;-72
2021/07/01 10:09:46;;;;;;;28.00;26.40;;;21.00;65.40;;;;;;5049476;28;20474;-73
2021/07/01 10:12:16;;;;;;;28.23;26.73;;;20.70;65.70;;;;;;5062261;28;20491;-73
2021/07/01 10:14:43;;;;;;;28.30;26.70;;;20.70;66.40;;;;;;5063466;28;20496;-73
2021/07/01 10:17:11;;;;;;;29.77;28.07;;;20.70;66.10;;;;;;5053435;28;20455;-73
2021/07/01 10:19:39;;;;;;;31.30;29.70;;;20.60;66.80;;;;;;5051328;28;20533;-73
2021/07/01 10:22:07;;;;;;;26.67;25.27;;;20.40;67.20;;;;;;5054862;28;20466;-72
2021/07/01 10:24:48;;;;;;;28.50;26.90;;;19.70;67.50;;;;;;5053095;28;20490;-73
2021/07/01 10:27:27;;;;;;;27.27;25.70;;;19.40;69.20;;;;;;5044006;28;21068;-72
2021/07/01 10:29:56;;;;;;;31.00;29.50;;;19.50;69.40;;;;;;5044544;28;20459;-72
2021/07/01 10:32:36;;;;;;;28.37;26.47;;;19.60;68.50;;;;;;5043942;28;20567;-72
2021/07/01 10:35:04;;;;;;;27.17;25.73;;;19.40;68.00;;;;;;5050657;28;20487;-72
2021/07/01 10:37:31;;;;;;;26.90;25.40;;;19.20;69.10;;;;;;5053255;28;20460;-72
2021/07/01 10:40:00;;;;;;;27.93;26.33;;;19.10;69.20;;;;;;5055501;28;20520;-73
2021/07/01 10:42:26;;;;;;;27.13;25.60;;;18.50;71.00;;;;;;5051203;28;20462;-73
2021/07/01 10:45:08;;;;;;;26.67;25.20;;;18.30;71.50;;;;;;5044446;28;20490;-72
2021/07/01 10:47:35;;;;;;;30.30;28.60;;;18.30;72.10;;;;;;5047368;28;20510;-73
2021/07/01 10:50:02;;;;;;;27.63;26.13;;;18.30;72.40;;;;;;5058957;28;20455;-75
2021/07/01 10:52:36;;;;;;;26.93;25.40;;;18.30;72.90;;;;;;5050684;28;20537;-77
2021/07/01 10:55:06;;;;;;;25.77;24.40;;;18.10;72.90;;;;;;5051420;28;20485;-75
2021/07/01 10:57:33;;;;;;;26.73;25.17;;;18.10;73.00;;;;;;5046723;28;20462;-75
2021/07/01 11:00:01;;;;;;;27.40;25.90;;;18.00;73.90;;;;;;5064075;28;20461;-76
2021/07/01 11:02:30;;;;;;;26.63;25.23;;;18.00;75.10;;;;;;5055427;28;21076;-74
2021/07/01 11:05:00;;;;;;;28.10;26.60;;;18.10;75.80;;;;;;5045759;28;20505;-75
2021/07/01 11:07:29;;;;;;;25.90;24.57;;;18.10;75.00;;;;;;5049899;28;21896;-75
2021/07/01 11:09:57;;;;;;;26.20;24.80;;;17.70;75.60;;;;;;5054380;28;20520;-74
2021/07/01 11:12:27;;;;;;;26.20;24.80;;;17.70;76.70;;;;;;5056515;28;20488;-75
2021/07/01 11:14:56;;;;;;;28.40;26.80;;;17.50;76.20;;;;;;5064336;28;20849;-73
2021/07/01 11:17:30;;;;;;;25.93;24.53;;;17.40;77.40;;;;;;5056593;28;20541;-73
2021/07/01 11:19:57;;;;;;;26.30;24.90;;;17.60;77.70;;;;;;5056998;28;20587;-74
2021/07/01 11:22:46;;;;;;;26.30;24.90;;;17.50;77.40;;;;;;5055536;28;20551;-77
2021/07/01 11:25:28;;;;;;;27.23;25.70;;;17.60;77.20;;;;;;5063273;28;20513;-73
2021/07/01 11:28:15;;;;;;;25.33;24.03;;;17.80;77.20;;;;;;5045008;28;20540;-74
2021/07/01 11:30:52;;;;;;;26.50;25.00;;;18.00;76.30;;;;;;5061204;28;20971;-74
2021/07/01 11:33:20;;;;;;;27.03;25.53;;;18.10;75.60;;;;;;5045085;28;20462;-73
2021/07/01 11:35:49;;;;;;;29.70;27.90;;;18.20;74.50;;;;;;5056404;28;20577;-74
2021/07/01 11:38:31;;;;;;;26.90;25.40;;;18.20;75.00;;;;;;5045967;28;20863;-73
2021/07/01 11:41:02;;;;;;;27.97;26.37;;;18.00;74.70;;;;;;5058046;28;20462;-74
2021/07/01 11:43:32;;;;;;;27.30;25.80;;;17.80;75.00;;;;;;5046637;28;21140;-75
2021/07/01 11:46:00;;;;;;;28.20;26.57;;;17.90;75.60;;;;;;5050367;28;20469;-74
2021/07/01 11:48:30;;;;;;;27.47;25.97;;;18.20;75.00;;;;;;5058944;28;20944;-75
2021/07/01 11:51:00;;;;;;;26.70;25.20;;;18.50;74.50;;;;;;5063774;28;20505;-74
2021/07/01 11:53:27;;;;;;;29.10;27.30;;;18.30;73.40;;;;;;5064718;28;20527;-73
2021/07/01 11:55:57;;;;;;;26.27;24.87;;;18.40;74.10;;;;;;5062960;28;20470;-73
2021/07/01 11:58:25;;;;;;;27.47;25.23;;;18.60;73.90;;;;;;5062766;28;20504;-73
2021/07/01 12:00:54;;;;;;;27.50;25.87;;;19.00;73.10;;;;;;5065286;28;20453;-72
2021/07/01 12:03:21;;;;;;;27.83;26.23;;;19.40;72.00;;;;;;5052697;28;20546;-74
2021/07/01 12:05:51;;;;;;;28.30;26.70;;;19.60;71.40;;;;;;5049364;28;20498;-75
2021/07/01 12:08:19;;;;;;;28.30;26.70;;;20.00;70.10;;;;;;5063939;28;20504;-75
2021/07/01 12:10:46;;;;;;;26.97;25.53;;;20.30;69.50;;;;;;5054252;28;20474;-75
2021/07/01 12:13:41;;;;;;;28.43;26.80;;;20.70;68.60;;;;;;5051567;28;20533;-75
2021/07/01 12:16:10;;;;;;;28.27;26.77;;;20.90;67.90;;;;;;5052183;28;20536;-75
2021/07/01 12:18:58;;;;;;;29.07;27.27;;;21.10;67.40;;;;;;5047125;28;20457;-72
2021/07/01 12:21:29;;;;;;;27.80;26.20;;;21.20;67.00;;;;;;5063833;28;20581;-74
2021/07/01 12:23:58;;;;;;;27.83;26.23;;;21.20;66.90;;;;;;5065997;28;20902;-75
2021/07/01 12:26:47;;;;;;;27.47;25.87;;;21.20;67.00;;;;;;5063066;28;21314;-76
2021/07/01 12:29:20;;;;;;;27.50;25.90;;;21.30;66.50;;;;;;5062046;28;20963;-75
2021/07/01 12:31:49;;;;;;;26.83;25.33;;;21.40;64.90;;;;;;5047790;28;20459;-73
2021/07/01 12:34:20;;;;;;;28.20;26.60;;;21.10;64.90;;;;;;5058559;28;21184;-72
2021/07/01 12:36:59;;;;;;;30.73;28.83;;;21.20;64.90;;;;;;5053961;28;21003;-73